Napoli Jet — IQTJ — position and weather

sailwx.info

Track history (hours):
 
Tides and Currents Weather Stations Pressure Air Temp Water Temp Dewpoint Dewpoint Depression Visibility Wind Speed Wind Dir Waves Ship Positions

Napoli Jet

Last reported at 2016-May-25 14:11 UTC. Time now 2016-May-25 14:58 UTC.
Position N 40°50' E 014°16'.

Length 41 m; draft 1.3 m.

Type: Ship. MMSI: 247051400.

Date/timePositionNaut miles runAvg speedWind from/ knotsBaromVisibWave heightAir tempDewpointWater temp
2016-May-25 14:11N 40°50' E 014°16'1523.1
2016-May-25 13:33N 40°36' E 014°16'2 2.4
2016-May-25 12:33N 40°33' E 014°14'0 0.0
2016-May-25 11:33N 40°33' E 014°14'1713.3
2016-May-25 10:18N 40°50' E 014°16'1720.4
2016-May-25 09:29N 40°33' E 014°14'0 0.0
2016-May-25 08:33N 40°33' E 014°14'0 0.0
2016-May-24 13:33N 40°33' E 014°14'0 0.0
2016-May-24 12:33N 40°33' E 014°14'0 0.0
2016-May-24 11:33N 40°33' E 014°14'0 0.0
2016-May-24 10:33N 40°33' E 014°14'0 0.0
2016-May-24 09:33N 40°33' E 014°14'0 0.0
2016-May-24 08:33N 40°33' E 014°14'0 0.0
2016-May-24 07:33N 40°33' E 014°14'0 0.0
2016-May-24 06:33N 40°33' E 014°14'0 0.0
2016-May-24 05:33N 40°33' E 014°14'0 0.0
2016-May-24 04:33N 40°33' E 014°14'0 0.0
2016-May-23 19:19N 40°33' E 014°14'811.2
2016-May-23 18:33N 40°41' E 014°21'1010.5
2016-May-23 17:33N 40°50' E 014°15'0 0.0
2016-May-23 16:33N 40°50' E 014°15'1716.9
2016-May-23 15:33N 40°33' E 014°14'1713.5
2016-May-23 14:18N 40°50' E 014°15'1520.7
2016-May-23 13:33N 40°35' E 014°16'6 5.7
2016-May-23 12:33N 40°38' E 014°22'7 7.3
2016-May-23 11:33N 40°33' E 014°14'1 1.0
2016-May-23 10:33N 40°34' E 014°14'1 0.5
2016-May-23 09:33N 40°34' E 014°14'1 0.5
2016-May-23 08:33N 40°33' E 014°14'1716.9
2016-May-23 07:33N 40°50' E 014°15'0 0.1
2016-May-23 06:33N 40°50' E 014°15'2 1.7
2016-May-23 05:33N 40°49' E 014°17'1615.8
2016-May-23 04:33N 40°33' E 014°14'5 0.5
2016-May-22 18:33N 40°39' E 014°16'1211.0
2016-May-22 17:30N 40°50' E 014°15'1 0.6
2016-May-22 16:33N 40°50' E 014°16'1716.6
2016-May-22 15:33N 40°33' E 014°14'1713.5
2016-May-22 14:18N 40°50' E 014°16'1621.3
2016-May-22 13:34N 40°34' E 014°15'1 1.0
2016-May-22 12:33N 40°33' E 014°14'3 2.5
2016-May-22 11:33N 40°36' E 014°16'1514.5
2016-May-22 10:33N 40°50' E 014°15'1716.9
2016-May-22 09:33N 40°33' E 014°14'17 4.2
2016-May-22 05:33N 40°50' E 014°17'1716.6
2016-May-22 04:33N 40°33' E 014°14'5 0.5
2016-May-21 18:34N 40°38' E 014°16'12 5.6
2016-May-21 16:27N 40°50' E 014°16'1718.8
2016-May-21 15:33N 40°33' E 014°14'1713.0
2016-May-21 14:15N 40°50' E 014°16'1521.9
2016-May-21 13:33N 40°35' E 014°15'6 6.4
2016-May-21 12:33N 40°38' E 014°23'8 7.6
2016-May-21 11:33N 40°33' E 014°14'0 0.0
2016-May-21 10:33N 40°33' E 014°14'0 0.0
2016-May-21 09:34N 40°33' E 014°14'1716.4
2016-May-21 08:32N 40°50' E 014°15'0 0.0
2016-May-21 07:31N 40°50' E 014°15'0 0.0
2016-May-21 06:33N 40°50' E 014°15'1 1.1
2016-May-21 05:33N 40°50' E 014°17'1716.5
2016-May-21 04:33N 40°33' E 014°14'5 0.5
2016-May-20 18:34N 40°38' E 014°15'1211.1
2016-May-20 17:29N 40°50' E 014°15'0 0.0
2016-May-20 16:33N 40°50' E 014°15'1716.8
2016-May-20 15:33N 40°33' E 014°14'1713.6
2016-May-20 14:19N 40°50' E 014°15'1621.3
2016-May-20 13:34N 40°34' E 014°15'1 0.6
2016-May-20 12:33N 40°33' E 014°14'0 0.3
2016-May-20 11:34N 40°34' E 014°15'1714.2
2016-May-20 10:23N 40°50' E 014°16'1720.3
2016-May-20 09:34N 40°33' E 014°14'0 0.0
2016-May-20 08:34N 40°33' E 014°14'16 5.3
2016-May-20 05:34N 40°49' E 014°17'10 0.3
2016-May-18 18:33N 40°39' E 014°16'1110.9
2016-May-18 17:33N 40°50' E 014°15'0 0.3
2016-May-18 16:25N 40°50' E 014°16'1719.4
2016-May-18 15:33N 40°33' E 014°14'2 2.2
2016-May-18 14:34N 40°35' E 014°17'2 2.2
2016-May-18 13:33N 40°33' E 014°14'0 0.0
2016-May-18 12:33N 40°33' E 014°14'0 0.1
2016-May-18 11:33N 40°33' E 014°14'1715.4
2016-May-18 10:28N 40°50' E 014°16'1718.3
2016-May-18 09:33N 40°33' E 014°14'0 0.0
2016-May-18 08:33N 40°33' E 014°14'16 5.2
2016-May-18 05:33N 40°49' E 014°17'1615.6
2016-May-18 04:33N 40°33' E 014°14'6 0.6
2016-May-17 18:33N 40°39' E 014°17'4 1.4
2016-May-17 15:33N 40°43' E 014°17'9 9.3
2016-May-17 14:33N 40°34' E 014°16'1 1.0
2016-May-17 13:33N 40°33' E 014°14'7 6.9
2016-May-17 12:34N 40°38' E 014°21'7 6.8
2016-May-17 11:33N 40°33' E 014°14'0 0.2
2016-May-17 10:33N 40°34' E 014°14'0 0.1
2016-May-17 09:33N 40°34' E 014°14'0 0.2
2016-May-17 08:33N 40°33' E 014°14'  
Track history (hours):
 
Tides and Currents Weather Stations Pressure Air Temp Water Temp Dewpoint Dewpoint Depression Visibility Wind Speed Wind Dir Waves Ship Positions

Napoli Jet

Last reported at 2016-May-25 14:11 UTC. Time now 2016-May-25 14:58 UTC.
Position N 40°50' E 014°16'.

Length 41 m; draft 1.3 m.

Type: Ship. MMSI: 247051400.

Date/timePositionNaut miles runAvg speedWind from/ knotsBaromVisibWave heightAir tempDewpointWater temp
2016-May-25 14:11N 40°50' E 014°16'1523.1
2016-May-25 13:33N 40°36' E 014°16'2 2.4
2016-May-25 12:33N 40°33' E 014°14'0 0.0
2016-May-25 11:33N 40°33' E 014°14'1713.3
2016-May-25 10:18N 40°50' E 014°16'1720.4
2016-May-25 09:29N 40°33' E 014°14'0 0.0
2016-May-25 08:33N 40°33' E 014°14'0 0.0
2016-May-24 13:33N 40°33' E 014°14'0 0.0
2016-May-24 12:33N 40°33' E 014°14'0 0.0
2016-May-24 11:33N 40°33' E 014°14'0 0.0
2016-May-24 10:33N 40°33' E 014°14'0 0.0
2016-May-24 09:33N 40°33' E 014°14'0 0.0
2016-May-24 08:33N 40°33' E 014°14'0 0.0
2016-May-24 07:33N 40°33' E 014°14'0 0.0
2016-May-24 06:33N 40°33' E 014°14'0 0.0
2016-May-24 05:33N 40°33' E 014°14'0 0.0
2016-May-24 04:33N 40°33' E 014°14'0 0.0
2016-May-23 19:19N 40°33' E 014°14'811.2
2016-May-23 18:33N 40°41' E 014°21'1010.5
2016-May-23 17:33N 40°50' E 014°15'0 0.0
2016-May-23 16:33N 40°50' E 014°15'1716.9
2016-May-23 15:33N 40°33' E 014°14'1713.5
2016-May-23 14:18N 40°50' E 014°15'1520.7
2016-May-23 13:33N 40°35' E 014°16'6 5.7
2016-May-23 12:33N 40°38' E 014°22'7 7.3
2016-May-23 11:33N 40°33' E 014°14'1 1.0
2016-May-23 10:33N 40°34' E 014°14'1 0.5
2016-May-23 09:33N 40°34' E 014°14'1 0.5
2016-May-23 08:33N 40°33' E 014°14'1716.9
2016-May-23 07:33N 40°50' E 014°15'0 0.1
2016-May-23 06:33N 40°50' E 014°15'2 1.7
2016-May-23 05:33N 40°49' E 014°17'1615.8
2016-May-23 04:33N 40°33' E 014°14'5 0.5
2016-May-22 18:33N 40°39' E 014°16'1211.0
2016-May-22 17:30N 40°50' E 014°15'1 0.6
2016-May-22 16:33N 40°50' E 014°16'1716.6
2016-May-22 15:33N 40°33' E 014°14'1713.5
2016-May-22 14:18N 40°50' E 014°16'1621.3
2016-May-22 13:34N 40°34' E 014°15'1 1.0
2016-May-22 12:33N 40°33' E 014°14'3 2.5
2016-May-22 11:33N 40°36' E 014°16'1514.5
2016-May-22 10:33N 40°50' E 014°15'1716.9
2016-May-22 09:33N 40°33' E 014°14'17 4.2
2016-May-22 05:33N 40°50' E 014°17'1716.6
2016-May-22 04:33N 40°33' E 014°14'5 0.5
2016-May-21 18:34N 40°38' E 014°16'12 5.6
2016-May-21 16:27N 40°50' E 014°16'1718.8
2016-May-21 15:33N 40°33' E 014°14'1713.0
2016-May-21 14:15N 40°50' E 014°16'1521.9
2016-May-21 13:33N 40°35' E 014°15'6 6.4
2016-May-21 12:33N 40°38' E 014°23'8 7.6
2016-May-21 11:33N 40°33' E 014°14'0 0.0
2016-May-21 10:33N 40°33' E 014°14'0 0.0
2016-May-21 09:34N 40°33' E 014°14'1716.4
2016-May-21 08:32N 40°50' E 014°15'0 0.0
2016-May-21 07:31N 40°50' E 014°15'0 0.0
2016-May-21 06:33N 40°50' E 014°15'1 1.1
2016-May-21 05:33N 40°50' E 014°17'1716.5
2016-May-21 04:33N 40°33' E 014°14'5 0.5
2016-May-20 18:34N 40°38' E 014°15'1211.1
2016-May-20 17:29N 40°50' E 014°15'0 0.0
2016-May-20 16:33N 40°50' E 014°15'1716.8
2016-May-20 15:33N 40°33' E 014°14'1713.6
2016-May-20 14:19N 40°50' E 014°15'1621.3
2016-May-20 13:34N 40°34' E 014°15'1 0.6
2016-May-20 12:33N 40°33' E 014°14'0 0.3
2016-May-20 11:34N 40°34' E 014°15'1714.2
2016-May-20 10:23N 40°50' E 014°16'1720.3
2016-May-20 09:34N 40°33' E 014°14'0 0.0
2016-May-20 08:34N 40°33' E 014°14'16 5.3
2016-May-20 05:34N 40°49' E 014°17'10 0.3
2016-May-18 18:33N 40°39' E 014°16'1110.9
2016-May-18 17:33N 40°50' E 014°15'0 0.3
2016-May-18 16:25N 40°50' E 014°16'1719.4
2016-May-18 15:33N 40°33' E 014°14'2 2.2
2016-May-18 14:34N 40°35' E 014°17'2 2.2
2016-May-18 13:33N 40°33' E 014°14'0 0.0
2016-May-18 12:33N 40°33' E 014°14'0 0.1
2016-May-18 11:33N 40°33' E 014°14'1715.4
2016-May-18 10:28N 40°50' E 014°16'1718.3
2016-May-18 09:33N 40°33' E 014°14'0 0.0
2016-May-18 08:33N 40°33' E 014°14'16 5.2
2016-May-18 05:33N 40°49' E 014°17'1615.6
2016-May-18 04:33N 40°33' E 014°14'6 0.6
2016-May-17 18:33N 40°39' E 014°17'4 1.4
2016-May-17 15:33N 40°43' E 014°17'9 9.3
2016-May-17 14:33N 40°34' E 014°16'1 1.0
2016-May-17 13:33N 40°33' E 014°14'7 6.9
2016-May-17 12:34N 40°38' E 014°21'7 6.8
2016-May-17 11:33N 40°33' E 014°14'0 0.2
2016-May-17 10:33N 40°34' E 014°14'0 0.1
2016-May-17 09:33N 40°34' E 014°14'0 0.2
2016-May-17 08:33N 40°33' E 014°14'  

Dump ship's entire track history